Time;durP1;ratioP1;P1;durP2;ratioP2;P2;SDS_P1;SDS_P2;PMS_P1;PMS_P2;Temp;Humidity;BMP_temperature;BMP_pressure;BME280_temperature;BME280_humidity;BME280_pressure;Samples;Min_cycle;Max_cycle;Signal;HPM_P1;HPM_P2
2021/10/11 00:02:06;;;;;;;115.95;57.30;;;9.50;99.90;;;;;;5014232;28;20431;-77
2021/10/11 00:04:32;;;;;;;112.13;55.10;;;9.40;99.90;;;;;;5023475;28;20412;-77
2021/10/11 00:06:57;;;;;;;107.03;56.00;;;9.40;99.90;;;;;;5021138;28;20483;-76
2021/10/11 00:09:23;;;;;;;112.60;56.00;;;9.50;99.90;;;;;;5007608;28;20397;-76
2021/10/11 00:11:48;;;;;;;104.73;54.23;;;9.50;99.90;;;;;;5019035;28;20413;-78
2021/10/11 00:14:14;;;;;;;107.60;53.80;;;9.50;99.90;;;;;;5023130;28;20432;-75
2021/10/11 00:16:39;;;;;;;111.90;53.43;;;9.50;99.90;;;;;;5029094;28;20398;-76
2021/10/11 00:19:05;;;;;;;101.73;53.23;;;9.60;99.90;;;;;;5030733;28;20413;-77
2021/10/11 00:21:31;;;;;;;110.17;54.23;;;9.60;99.90;;;;;;5017748;28;20650;-77
2021/10/11 00:23:57;;;;;;;101.88;52.75;;;9.70;99.90;;;;;;5018665;28;20447;-78
2021/10/11 00:26:23;;;;;;;100.07;51.30;;;9.70;99.90;;;;;;5018313;28;20392;-77
2021/10/11 00:28:48;;;;;;;101.63;53.63;;;9.80;99.90;;;;;;5018797;28;20393;-76
2021/10/11 00:31:14;;;;;;;106.10;51.28;;;9.90;99.90;;;;;;5004763;28;20398;-76
2021/10/11 00:33:40;;;;;;;97.05;49.42;;;9.90;99.90;;;;;;5006701;28;20471;-76
2021/10/11 00:36:06;;;;;;;89.55;49.45;;;10.00;99.90;;;;;;5000936;28;20468;-77
2021/10/11 00:38:32;;;;;;;92.35;48.65;;;10.10;98.60;;;;;;5006889;28;20412;-78
2021/10/11 00:40:57;;;;;;;96.20;49.83;;;10.10;96.80;;;;;;5005064;28;20682;-78
2021/10/11 00:43:23;;;;;;;88.60;48.17;;;10.20;97.10;;;;;;4998669;28;20400;-78
2021/10/11 00:45:48;;;;;;;92.10;48.87;;;10.20;95.60;;;;;;5015383;28;20465;-78
2021/10/11 00:48:14;;;;;;;95.75;50.45;;;10.20;94.70;;;;;;5009400;28;20525;-78
2021/10/11 00:50:40;;;;;;;91.80;48.13;;;10.30;93.40;;;;;;5021099;28;20432;-77
2021/10/11 00:53:05;;;;;;;85.55;47.88;;;10.40;90.70;;;;;;5024065;28;20391;-78
2021/10/11 00:55:32;;;;;;;85.53;47.05;;;10.40;87.50;;;;;;5022786;28;20790;-79
2021/10/11 00:57:57;;;;;;;94.68;50.65;;;10.50;85.20;;;;;;5015873;28;20415;-78
2021/10/11 01:00:23;;;;;;;87.05;49.97;;;10.40;85.80;;;;;;5016732;28;20400;-76
2021/10/11 01:02:49;;;;;;;87.95;48.20;;;10.40;86.60;;;;;;5017718;28;20404;-77
2021/10/11 01:05:14;;;;;;;88.60;47.35;;;10.40;86.20;;;;;;5016886;28;20479;-78
2021/10/11 01:07:40;;;;;;;91.93;49.55;;;10.50;86.00;;;;;;5020516;28;20416;-77
2021/10/11 01:10:06;;;;;;;83.78;48.05;;;10.50;85.30;;;;;;5040521;28;20458;-77
2021/10/11 01:12:31;;;;;;;89.00;49.15;;;10.50;85.50;;;;;;5026124;28;20392;-76
2021/10/11 01:14:57;;;;;;;84.97;47.08;;;10.50;82.60;;;;;;5022817;28;20405;-75
2021/10/11 01:17:22;;;;;;;88.32;47.67;;;10.60;81.80;;;;;;5005730;28;20438;-76
2021/10/11 01:19:49;;;;;;;91.90;49.13;;;10.60;81.50;;;;;;5017008;28;20411;-76
2021/10/11 01:22:17;;;;;;;83.68;46.45;;;10.60;81.80;;;;;;5023212;28;20973;-75
2021/10/11 01:24:43;;;;;;;83.95;47.13;;;10.60;82.70;;;;;;5020969;28;20407;-79
2021/10/11 01:27:09;;;;;;;94.80;49.77;;;10.60;82.10;;;;;;5017188;28;20389;-77
2021/10/11 01:29:34;;;;;;;79.82;46.70;;;10.60;81.80;;;;;;5016382;28;20392;-77
2021/10/11 01:32:00;;;;;;;89.38;47.08;;;10.70;81.20;;;;;;5006771;28;20399;-79
2021/10/11 01:34:25;;;;;;;87.25;48.03;;;10.70;81.40;;;;;;4993971;28;20879;-74
2021/10/11 01:36:51;;;;;;;85.57;48.40;;;10.70;80.90;;;;;;5010612;28;20397;-75
2021/10/11 01:39:17;;;;;;;90.00;47.60;;;10.70;80.20;;;;;;5011576;28;20901;-75
2021/10/11 01:41:42;;;;;;;84.03;48.33;;;10.80;80.60;;;;;;4997709;28;20723;-76
2021/10/11 01:44:08;;;;;;;90.00;49.87;;;10.80;79.80;;;;;;5005576;28;20423;-76
2021/10/11 01:46:35;;;;;;;90.97;49.37;;;10.80;81.00;;;;;;5012033;28;20406;-76
2021/10/11 01:49:00;;;;;;;91.00;48.58;;;10.70;82.20;;;;;;5011276;28;20475;-76
2021/10/11 01:51:26;;;;;;;88.22;47.28;;;10.80;83.60;;;;;;5011638;28;20431;-75
2021/10/11 01:53:51;;;;;;;87.13;47.72;;;10.80;83.30;;;;;;5011918;28;20401;-76
2021/10/11 01:56:17;;;;;;;82.18;47.15;;;10.70;84.50;;;;;;5015161;28;20935;-76
2021/10/11 01:58:43;;;;;;;92.00;49.45;;;10.80;84.90;;;;;;5013729;28;20420;-76
2021/10/11 02:01:09;;;;;;;95.20;49.40;;;10.80;85.60;;;;;;5016728;28;20758;-76
2021/10/11 02:03:34;;;;;;;87.30;48.37;;;10.80;85.70;;;;;;5015771;28;20389;-76
2021/10/11 02:06:00;;;;;;;92.72;48.38;;;10.70;85.90;;;;;;5015111;28;20388;-76
2021/10/11 02:08:25;;;;;;;87.75;46.95;;;10.70;85.80;;;;;;5013810;28;20396;-74
2021/10/11 02:10:51;;;;;;;82.65;48.08;;;10.70;86.70;;;;;;5013448;28;20381;-74
2021/10/11 02:13:16;;;;;;;93.28;48.75;;;10.70;87.80;;;;;;5013145;28;20503;-73
2021/10/11 02:15:42;;;;;;;80.68;44.78;;;10.70;88.80;;;;;;5013750;28;20454;-74
2021/10/11 02:18:08;;;;;;;81.20;46.15;;;10.80;88.70;;;;;;5014101;28;20416;-76
2021/10/11 02:20:35;;;;;;;81.18;44.65;;;10.70;89.10;;;;;;5013633;28;20850;-74
2021/10/11 02:23:01;;;;;;;76.53;44.10;;;10.70;89.00;;;;;;5019325;28;20397;-74
2021/10/11 02:25:27;;;;;;;84.30;44.45;;;10.70;89.90;;;;;;5019171;28;20398;-74
2021/10/11 02:27:52;;;;;;;93.67;49.17;;;10.60;90.10;;;;;;5041956;28;20577;-75
2021/10/11 02:30:18;;;;;;;87.45;46.45;;;10.50;91.90;;;;;;5011508;28;20872;-75
2021/10/11 02:32:43;;;;;;;87.47;45.88;;;10.50;92.90;;;;;;5004998;28;20395;-75
2021/10/11 02:35:09;;;;;;;81.88;44.70;;;10.50;93.40;;;;;;4994570;28;20868;-74
2021/10/11 02:37:35;;;;;;;82.88;46.00;;;10.40;93.50;;;;;;5023988;28;20507;-75
2021/10/11 02:40:01;;;;;;;84.97;47.20;;;10.50;93.90;;;;;;5011787;28;20377;-75
2021/10/11 02:42:26;;;;;;;81.80;46.10;;;10.50;95.10;;;;;;5017926;28;20408;-74
2021/10/11 02:44:52;;;;;;;82.40;45.40;;;10.40;94.90;;;;;;5028741;28;20399;-75
2021/10/11 02:47:18;;;;;;;84.55;44.67;;;10.40;95.50;;;;;;5010999;28;20406;-74
2021/10/11 02:49:43;;;;;;;90.88;46.58;;;10.40;96.30;;;;;;4994009;28;20395;-75
2021/10/11 02:52:09;;;;;;;89.07;47.58;;;10.40;97.20;;;;;;5007779;28;20932;-76
2021/10/11 02:54:35;;;;;;;91.57;48.33;;;10.40;98.20;;;;;;5014135;28;20469;-77
2021/10/11 02:57:00;;;;;;;97.22;48.90;;;10.40;98.70;;;;;;5015401;28;20403;-75
2021/10/11 02:59:26;;;;;;;88.47;47.58;;;10.40;98.70;;;;;;5010559;28;20892;-74
2021/10/11 03:01:51;;;;;;;89.78;47.97;;;10.40;98.90;;;;;;4999284;28;20379;-76
2021/10/11 03:04:17;;;;;;;92.43;49.35;;;10.60;98.90;;;;;;5011842;28;20447;-77
2021/10/11 03:06:43;;;;;;;97.32;50.83;;;10.50;97.00;;;;;;5025028;28;20388;-76
2021/10/11 03:09:08;;;;;;;89.53;48.92;;;10.50;97.90;;;;;;5015538;28;20416;-75
2021/10/11 03:11:34;;;;;;;92.03;48.87;;;10.50;98.60;;;;;;5016817;28;20381;-74
2021/10/11 03:14:00;;;;;;;92.43;48.83;;;10.60;99.50;;;;;;5008337;28;20405;-77
2021/10/11 03:16:26;;;;;;;98.45;49.90;;;10.70;94.50;;;;;;4994989;28;20401;-78
2021/10/11 03:18:52;;;;;;;97.95;51.00;;;10.70;96.20;;;;;;5003300;28;20411;-76
2021/10/11 03:21:18;;;;;;;92.38;50.50;;;10.60;97.10;;;;;;4993549;28;20382;-76
2021/10/11 03:23:48;;;;;;;97.65;52.00;;;10.60;98.20;;;;;;5014229;28;20400;-76
2021/10/11 03:26:13;;;;;;;96.05;52.13;;;10.70;98.90;;;;;;5018492;28;20464;-76
2021/10/11 03:28:39;;;;;;;101.97;53.87;;;10.60;99.30;;;;;;5015548;28;20554;-76
2021/10/11 03:31:05;;;;;;;99.57;52.15;;;10.60;99.90;;;;;;4999073;28;20460;-76
2021/10/11 03:33:30;;;;;;;109.63;55.00;;;10.70;99.90;;;;;;4998563;28;20600;-76
2021/10/11 03:35:56;;;;;;;105.43;56.30;;;10.70;99.90;;;;;;4993684;28;20391;-76
2021/10/11 03:38:21;;;;;;;98.25;52.90;;;10.70;99.90;;;;;;5005438;28;20413;-76
2021/10/11 03:40:47;;;;;;;101.35;52.50;;;10.80;99.90;;;;;;5002734;28;20451;-75
2021/10/11 03:43:13;;;;;;;97.72;52.20;;;10.80;99.80;;;;;;4990671;28;20469;-75
2021/10/11 03:45:38;;;;;;;101.80;51.80;;;10.80;98.10;;;;;;5000575;28;20400;-76
2021/10/11 03:48:04;;;;;;;102.80;54.63;;;10.80;97.90;;;;;;5012380;28;20800;-76
2021/10/11 03:50:30;;;;;;;97.72;52.42;;;10.80;98.80;;;;;;5012123;28;20413;-76
2021/10/11 03:52:56;;;;;;;95.73;52.13;;;10.80;99.70;;;;;;5012466;28;20385;-76
2021/10/11 03:55:21;;;;;;;108.73;56.07;;;10.80;99.90;;;;;;5012558;28;20401;-75
2021/10/11 03:57:47;;;;;;;100.67;53.40;;;10.90;99.90;;;;;;5012547;28;20428;-77
2021/10/11 04:00:13;;;;;;;96.83;51.50;;;10.90;99.90;;;;;;5012168;28;20443;-77
2021/10/11 04:02:39;;;;;;;97.47;50.85;;;10.90;99.90;;;;;;5011862;28;20396;-77
2021/10/11 04:05:06;;;;;;;99.40;52.03;;;10.90;99.90;;;;;;5012354;28;20381;-76
2021/10/11 04:07:31;;;;;;;95.97;52.35;;;10.90;99.90;;;;;;5011701;28;20447;-75
2021/10/11 04:10:00;;;;;;;99.35;52.15;;;10.90;99.90;;;;;;5012890;28;20400;-77
2021/10/11 04:12:33;;;;;;;101.85;53.08;;;10.90;99.90;;;;;;5017642;28;20435;-77
2021/10/11 04:14:59;;;;;;;92.47;51.67;;;10.90;99.90;;;;;;5012305;28;20406;-77
2021/10/11 04:17:25;;;;;;;96.57;51.20;;;10.90;99.90;;;;;;5019455;28;20409;-77
2021/10/11 04:19:50;;;;;;;98.03;50.33;;;11.00;99.90;;;;;;5020731;28;20806;-77
2021/10/11 04:22:16;;;;;;;99.27;52.73;;;11.00;99.90;;;;;;5014192;28;20401;-77
2021/10/11 04:24:42;;;;;;;95.47;52.30;;;11.00;99.90;;;;;;5014779;28;20385;-77
2021/10/11 04:27:07;;;;;;;94.13;50.45;;;11.00;99.70;;;;;;5014959;28;20396;-76
2021/10/11 04:29:33;;;;;;;92.38;51.58;;;11.00;99.70;;;;;;5009863;28;20853;-75
2021/10/11 04:31:59;;;;;;;104.57;53.90;;;11.00;99.90;;;;;;5015611;28;20393;-76
2021/10/11 04:34:24;;;;;;;96.33;50.83;;;11.00;99.90;;;;;;5020748;28;20392;-75
2021/10/11 04:36:50;;;;;;;97.10;50.97;;;11.00;99.50;;;;;;5019998;28;20564;-75
2021/10/11 04:39:15;;;;;;;97.93;50.50;;;11.00;99.50;;;;;;5018953;28;20417;-76
2021/10/11 04:41:41;;;;;;;92.80;50.50;;;11.00;99.90;;;;;;5002924;28;20390;-75
2021/10/11 04:44:07;;;;;;;95.07;50.40;;;11.00;99.90;;;;;;5013598;28;20392;-76
2021/10/11 04:46:32;;;;;;;88.27;49.43;;;11.00;99.90;;;;;;5031281;28;20818;-77
2021/10/11 04:48:58;;;;;;;97.63;51.57;;;11.10;99.90;;;;;;5013578;28;20464;-77
2021/10/11 04:51:24;;;;;;;93.43;49.10;;;11.10;99.90;;;;;;5015227;28;20392;-77
2021/10/11 04:53:49;;;;;;;92.90;50.23;;;11.20;99.90;;;;;;5013136;28;20889;-76
2021/10/11 04:56:15;;;;;;;98.07;52.35;;;11.20;99.10;;;;;;5013741;28;20381;-75
2021/10/11 04:58:41;;;;;;;96.03;54.10;;;11.20;98.10;;;;;;5005558;28;20952;-76
2021/10/11 05:01:06;;;;;;;95.27;51.70;;;11.20;98.50;;;;;;4995113;28;20433;-76
2021/10/11 05:03:32;;;;;;;96.40;51.80;;;11.20;99.00;;;;;;4993317;28;20452;-77
2021/10/11 05:05:57;;;;;;;101.53;52.60;;;11.20;99.20;;;;;;5012963;28;20408;-74
2021/10/11 05:08:23;;;;;;;93.73;49.50;;;11.20;99.40;;;;;;5012862;28;20384;-77
2021/10/11 05:10:48;;;;;;;164.90;86.33;;;11.30;98.70;;;;;;5014143;28;20499;-77
2021/10/11 05:13:14;;;;;;;179.05;93.30;;;11.40;99.90;;;;;;4996700;28;20425;-76
2021/10/11 05:15:39;;;;;;;357.75;214.02;;;11.50;99.90;;;;;;5010850;28;20439;-76
2021/10/11 05:18:05;;;;;;;114.18;61.97;;;11.60;99.90;;;;;;4996617;28;20781;-77
2021/10/11 05:20:35;;;;;;;282.10;149.48;;;11.60;99.20;;;;;;5012288;28;20401;-76
2021/10/11 05:23:01;;;;;;;111.45;57.28;;;11.70;99.90;;;;;;5013043;28;20381;-76
2021/10/11 05:25:27;;;;;;;129.30;66.40;;;11.90;97.10;;;;;;5011534;28;20397;-76
2021/10/11 05:27:53;;;;;;;88.43;47.42;;;12.00;95.40;;;;;;5016136;28;20403;-76
2021/10/11 05:30:19;;;;;;;81.47;44.07;;;12.20;90.00;;;;;;5009445;28;20493;-76
2021/10/11 05:32:45;;;;;;;77.60;43.13;;;12.30;87.30;;;;;;5007506;28;20487;-76
2021/10/11 05:35:12;;;;;;;79.05;42.70;;;12.30;88.40;;;;;;5019471;28;20393;-78
2021/10/11 05:37:38;;;;;;;73.60;40.35;;;12.30;88.40;;;;;;5017772;28;20595;-76
2021/10/11 05:40:06;;;;;;;66.60;33.85;;;12.30;90.70;;;;;;5013894;28;20434;-78
2021/10/11 05:42:31;;;;;;;67.03;34.00;;;12.30;88.00;;;;;;5025412;28;20479;-77
2021/10/11 05:44:57;;;;;;;78.00;41.70;;;12.40;90.20;;;;;;5037486;28;20476;-78
2021/10/11 05:47:23;;;;;;;112.60;62.27;;;12.30;91.70;;;;;;5019296;28;20840;-75
2021/10/11 05:49:48;;;;;;;55.13;28.47;;;12.40;90.00;;;;;;5019470;28;20436;-76
2021/10/11 05:52:14;;;;;;;77.50;41.53;;;12.40;91.00;;;;;;5021990;28;20389;-78
2021/10/11 05:54:39;;;;;;;59.17;28.37;;;12.30;94.50;;;;;;5005313;28;20873;-76
2021/10/11 05:57:05;;;;;;;41.10;19.07;;;12.40;94.60;;;;;;5002521;28;20390;-76
2021/10/11 05:59:31;;;;;;;40.05;19.50;;;12.60;88.90;;;;;;5019184;28;20405;-75
2021/10/11 06:01:56;;;;;;;39.87;19.23;;;12.60;89.20;;;;;;5019728;28;20860;-76
2021/10/11 06:04:22;;;;;;;35.00;16.10;;;12.60;89.10;;;;;;5019238;28;20396;-77
2021/10/11 06:06:47;;;;;;;37.47;16.77;;;12.60;89.40;;;;;;5019548;28;20397;-76
2021/10/11 06:09:13;;;;;;;30.10;13.30;;;12.60;90.00;;;;;;5020853;28;20393;-75
2021/10/11 06:11:40;;;;;;;30.20;15.20;;;12.70;86.40;;;;;;5020265;28;20527;-77
2021/10/11 06:14:06;;;;;;;20.83;10.70;;;12.70;86.70;;;;;;5020967;28;20444;-75
2021/10/11 06:16:31;;;;;;;26.00;11.83;;;12.70;85.60;;;;;;5028669;28;20427;-76
2021/10/11 06:18:57;;;;;;;33.43;12.60;;;12.70;85.80;;;;;;5021358;28;20412;-78
2021/10/11 06:21:22;;;;;;;26.30;13.20;;;12.80;86.60;;;;;;5019702;28;20896;-78
2021/10/11 06:23:51;;;;;;;28.77;12.60;;;12.80;86.50;;;;;;5018873;28;20443;-77
2021/10/11 06:26:16;;;;;;;30.20;13.40;;;12.70;88.50;;;;;;5013465;28;20761;-78
2021/10/11 06:28:42;;;;;;;35.97;14.70;;;12.70;88.10;;;;;;5006519;28;20481;-76
2021/10/11 06:31:07;;;;;;;32.50;15.17;;;12.80;88.10;;;;;;5012571;28;20405;-78
2021/10/11 06:33:33;;;;;;;31.20;14.20;;;12.80;88.00;;;;;;5009226;28;20451;-77
2021/10/11 06:35:58;;;;;;;28.00;13.23;;;12.70;89.50;;;;;;5016982;28;20404;-78
2021/10/11 06:38:24;;;;;;;33.20;14.87;;;12.70;91.10;;;;;;5027884;28;20409;-77
2021/10/11 06:40:50;;;;;;;32.50;14.30;;;12.80;90.80;;;;;;5018083;28;20430;-77
2021/10/11 06:43:16;;;;;;;28.95;14.43;;;12.80;89.70;;;;;;5006044;28;20398;-76
2021/10/11 06:45:42;;;;;;;32.90;13.57;;;12.80;90.20;;;;;;5007084;28;20408;-77
2021/10/11 06:48:08;;;;;;;36.28;15.43;;;12.80;90.70;;;;;;5005914;28;20594;-75
2021/10/11 06:50:33;;;;;;;31.30;14.60;;;12.70;92.30;;;;;;4999487;28;20547;-76
2021/10/11 06:52:59;;;;;;;32.40;14.30;;;12.60;93.30;;;;;;5003787;28;20406;-78
2021/10/11 06:55:24;;;;;;;28.70;14.70;;;12.50;94.80;;;;;;5010891;28;20412;-74
2021/10/11 06:57:50;;;;;;;31.53;14.47;;;12.50;96.00;;;;;;5011848;28;20488;-77
2021/10/11 07:00:16;;;;;;;36.47;13.93;;;12.40;97.10;;;;;;5010812;28;20404;-77
2021/10/11 07:02:41;;;;;;;32.22;14.98;;;12.40;97.40;;;;;;5006129;28;20921;-76
2021/10/11 07:05:08;;;;;;;30.17;14.07;;;12.40;97.40;;;;;;5002643;28;20485;-74
2021/10/11 07:07:34;;;;;;;30.92;13.05;;;12.40;98.70;;;;;;5013514;28;20416;-77
2021/10/11 07:10:01;;;;;;;35.67;14.65;;;12.40;98.30;;;;;;5004651;28;20397;-76
2021/10/11 07:12:27;;;;;;;28.55;12.15;;;12.40;97.60;;;;;;5011287;28;20424;-75
2021/10/11 07:14:53;;;;;;;26.80;12.17;;;12.50;95.90;;;;;;5010275;28;20416;-76
2021/10/11 07:17:18;;;;;;;27.03;11.03;;;12.50;94.50;;;;;;4999132;28;20432;-75
2021/10/11 07:19:46;;;;;;;23.90;10.97;;;12.60;92.90;;;;;;5008867;28;20389;-75
2021/10/11 07:22:16;;;;;;;22.30;9.63;;;12.70;91.50;;;;;;5009866;28;20403;-75
2021/10/11 07:24:43;;;;;;;19.10;9.60;;;12.80;89.10;;;;;;5009104;28;20392;-77
2021/10/11 07:27:08;;;;;;;21.77;9.10;;;13.00;87.80;;;;;;5019641;28;20381;-77
2021/10/11 07:29:35;;;;;;;21.42;9.23;;;13.00;84.00;;;;;;5014026;28;20420;-74
2021/10/11 07:32:01;;;;;;;21.93;8.20;;;13.10;82.60;;;;;;5009419;28;20825;-74
2021/10/11 07:34:26;;;;;;;29.15;8.20;;;13.10;80.80;;;;;;5013847;28;20472;-76
2021/10/11 07:36:52;;;;;;;14.07;7.13;;;13.10;78.70;;;;;;4996238;28;20906;-77
2021/10/11 07:39:18;;;;;;;20.38;7.93;;;13.00;75.10;;;;;;4995706;28;20491;-76
2021/10/11 07:41:43;;;;;;;22.08;7.68;;;13.00;77.60;;;;;;5001699;28;20812;-75
2021/10/11 07:44:10;;;;;;;17.43;7.60;;;13.00;75.20;;;;;;5010086;28;20410;-76
2021/10/11 07:46:37;;;;;;;22.13;7.68;;;13.10;76.70;;;;;;5024385;28;20481;-75
2021/10/11 07:49:02;;;;;;;18.80;7.00;;;13.10;76.10;;;;;;5011336;28;20401;-74
2021/10/11 07:51:28;;;;;;;20.40;6.90;;;13.10;73.90;;;;;;5023803;28;20430;-77
2021/10/11 07:53:54;;;;;;;27.17;7.80;;;13.10;76.10;;;;;;5019669;28;20392;-77
2021/10/11 07:56:19;;;;;;;19.93;7.00;;;13.10;75.10;;;;;;5005683;28;20496;-76
2021/10/11 07:58:45;;;;;;;23.60;6.77;;;13.30;73.80;;;;;;5003627;28;20435;-75
2021/10/11 08:01:10;;;;;;;20.00;6.50;;;13.30;65.90;;;;;;5003170;28;20412;-76
2021/10/11 08:03:36;;;;;;;16.25;6.80;;;13.30;68.30;;;;;;5000018;28;20480;-77
2021/10/11 08:06:04;;;;;;;17.80;7.32;;;13.30;67.50;;;;;;4996875;28;20394;-78
2021/10/11 08:08:32;;;;;;;26.67;7.13;;;13.50;69.70;;;;;;5003559;28;20397;-78
2021/10/11 08:10:58;;;;;;;20.88;6.80;;;13.60;66.10;;;;;;5010680;28;21130;-77
2021/10/11 08:13:24;;;;;;;14.52;6.22;;;13.60;65.20;;;;;;5009857;28;20758;-77
2021/10/11 08:15:50;;;;;;;20.20;6.13;;;13.80;66.00;;;;;;5005450;28;20451;-79
2021/10/11 08:18:16;;;;;;;12.90;5.40;;;14.00;59.70;;;;;;5007532;28;20469;-77
2021/10/11 08:20:42;;;;;;;14.05;5.78;;;14.10;57.90;;;;;;5007366;28;20413;-77
2021/10/11 08:23:12;;;;;;;17.55;5.85;;;14.20;56.10;;;;;;5009435;28;20396;-77
2021/10/11 08:25:37;;;;;;;24.23;6.40;;;14.30;58.10;;;;;;5012916;28;20472;-78
2021/10/11 08:28:04;;;;;;;19.10;5.40;;;14.60;53.80;;;;;;5004105;28;20443;-77
2021/10/11 08:30:30;;;;;;;24.15;6.32;;;14.70;48.00;;;;;;5003981;28;20484;-78
2021/10/11 08:32:55;;;;;;;19.80;5.88;;;14.70;51.00;;;;;;5009721;28;20413;-77
2021/10/11 08:35:21;;;;;;;18.55;6.03;;;14.90;49.10;;;;;;5009556;28;20408;-77
2021/10/11 08:37:46;;;;;;;15.20;5.18;;;14.90;47.60;;;;;;5004544;28;20413;-77
2021/10/11 08:40:13;;;;;;;14.05;5.30;;;14.90;44.40;;;;;;5017456;28;20475;-78
2021/10/11 08:42:40;;;;;;;20.75;5.70;;;14.90;45.90;;;;;;5016859;28;20460;-77
2021/10/11 08:45:07;;;;;;;20.17;5.23;;;14.80;47.50;;;;;;5006524;28;20494;-76
2021/10/11 08:47:33;;;;;;;21.25;5.65;;;14.70;47.00;;;;;;4998632;28;20399;-77
2021/10/11 08:49:59;;;;;;;18.17;5.50;;;14.70;46.90;;;;;;4996098;28;20417;-78
2021/10/11 08:52:25;;;;;;;20.30;5.53;;;14.70;46.60;;;;;;5016561;28;20460;-77
2021/10/11 08:54:52;;;;;;;16.67;5.57;;;14.70;46.90;;;;;;5013858;28;20435;-76
2021/10/11 08:57:23;;;;;;;20.30;5.18;;;14.70;45.20;;;;;;5003123;28;20528;-76
2021/10/11 08:59:49;;;;;;;17.95;5.38;;;14.70;46.10;;;;;;5007127;28;20417;-75
2021/10/11 09:02:16;;;;;;;17.60;5.10;;;14.80;45.80;;;;;;5010329;28;20423;-76
2021/10/11 09:04:51;;;;;;;18.20;5.15;;;14.80;42.50;;;;;;5006400;28;20492;-76
2021/10/11 09:07:21;;;;;;;16.98;4.63;;;14.80;42.50;;;;;;5006642;28;20405;-77
2021/10/11 09:09:48;;;;;;;17.90;4.35;;;14.80;43.70;;;;;;5014337;28;20382;-77
2021/10/11 09:12:18;;;;;;;22.95;5.15;;;14.80;43.60;;;;;;5022246;28;20395;-77
2021/10/11 09:14:46;;;;;;;15.25;4.82;;;14.90;43.00;;;;;;5023016;28;20408;-75
2021/10/11 09:17:27;;;;;;;22.15;4.70;;;15.00;42.70;;;;;;5017695;28;20452;-77
2021/10/11 09:19:58;;;;;;;19.15;4.38;;;14.90;42.40;;;;;;5008673;28;20427;-77
2021/10/11 09:22:38;;;;;;;25.75;4.60;;;14.70;41.00;;;;;;5011799;28;20396;-77
2021/10/11 09:25:05;;;;;;;14.30;4.82;;;14.80;44.20;;;;;;5020584;28;20404;-76
2021/10/11 09:27:54;;;;;;;18.00;5.65;;;14.90;43.80;;;;;;5006498;28;20459;-76
2021/10/11 09:30:25;;;;;;;16.80;4.30;;;15.00;42.20;;;;;;5008828;28;20407;-76
2021/10/11 09:32:50;;;;;;;18.45;5.10;;;15.10;42.40;;;;;;5011006;28;20403;-76
2021/10/11 09:35:19;;;;;;;13.03;4.20;;;15.10;42.60;;;;;;5011486;28;20469;-75
2021/10/11 09:37:50;;;;;;;11.55;3.83;;;15.10;40.60;;;;;;5004459;28;20839;-75
2021/10/11 09:40:16;;;;;;;19.20;4.10;;;14.90;41.00;;;;;;5007023;28;20381;-74
2021/10/11 09:42:42;;;;;;;12.93;3.90;;;14.80;41.00;;;;;;4993910;28;20399;-74
2021/10/11 09:45:08;;;;;;;9.65;3.85;;;14.80;43.40;;;;;;5012754;28;20453;-75
2021/10/11 09:50:06;;;;;;;12.40;3.28;;;15.20;40.30;;;;;;5009846;28;20476;-75
2021/10/11 09:52:31;;;;;;;15.47;3.10;;;15.30;39.40;;;;;;5002317;28;20907;-74
2021/10/11 09:54:57;;;;;;;21.00;4.60;;;15.30;39.40;;;;;;5009195;28;20415;-75
2021/10/11 09:57:23;;;;;;;14.18;4.20;;;15.40;40.30;;;;;;5013385;28;20395;-73
2021/10/11 09:59:50;;;;;;;19.73;3.75;;;15.40;38.60;;;;;;5009052;28;20515;-76
2021/10/11 10:02:25;;;;;;;12.80;3.15;;;15.70;38.60;;;;;;5006067;28;20818;-74
2021/10/11 10:04:55;;;;;;;11.95;3.80;;;15.90;37.90;;;;;;5011615;28;20901;-75
2021/10/11 10:07:22;;;;;;;15.63;3.55;;;15.80;37.60;;;;;;5010894;28;20412;-73
2021/10/11 10:09:51;;;;;;;14.65;2.58;;;15.60;37.40;;;;;;5003250;28;20770;-74
2021/10/11 10:12:16;;;;;;;8.10;2.88;;;15.30;36.20;;;;;;5000405;28;20406;-75
2021/10/11 10:14:42;;;;;;;17.73;3.63;;;15.30;38.00;;;;;;5003564;28;20398;-74
2021/10/11 10:17:08;;;;;;;13.60;3.08;;;15.30;38.00;;;;;;5014887;28;20407;-74
2021/10/11 10:19:35;;;;;;;11.15;2.58;;;15.50;36.20;;;;;;5006259;28;20526;-76
2021/10/11 10:22:09;;;;;;;12.67;2.90;;;15.50;35.40;;;;;;5015222;28;20394;-77
2021/10/11 10:24:38;;;;;;;8.13;2.88;;;15.50;36.30;;;;;;5008370;28;20416;-75
2021/10/11 10:27:14;;;;;;;15.50;3.50;;;15.70;36.40;;;;;;5005331;28;20418;-74
2021/10/11 10:29:43;;;;;;;12.38;3.38;;;15.70;36.40;;;;;;4994663;28;20502;-74
2021/10/11 10:32:15;;;;;;;13.82;3.50;;;15.50;37.50;;;;;;5014320;28;20401;-76
2021/10/11 10:34:41;;;;;;;16.80;3.60;;;15.80;35.30;;;;;;5008386;28;20408;-76
2021/10/11 10:37:09;;;;;;;13.55;3.55;;;16.10;34.00;;;;;;5007608;28;20403;-77
2021/10/11 10:39:49;;;;;;;12.23;3.57;;;16.10;33.50;;;;;;5014757;28;20413;-76
2021/10/11 10:42:26;;;;;;;12.63;3.38;;;15.90;34.10;;;;;;5014836;28;20733;-77
2021/10/11 10:44:53;;;;;;;18.48;4.75;;;15.90;35.50;;;;;;5019802;28;20399;-77
2021/10/11 10:47:30;;;;;;;14.40;3.80;;;16.10;35.40;;;;;;5018865;28;20519;-77
2021/10/11 10:49:55;;;;;;;16.52;3.47;;;16.30;33.90;;;;;;5000328;28;20779;-74
2021/10/11 10:52:22;;;;;;;9.90;2.80;;;16.20;33.50;;;;;;4996494;28;20390;-76
2021/10/11 10:54:53;;;;;;;14.57;2.97;;;15.60;34.10;;;;;;5010240;28;20396;-76
2021/10/11 10:57:21;;;;;;;18.58;3.67;;;15.40;35.70;;;;;;5012198;28;20401;-76
2021/10/11 10:59:54;;;;;;;12.57;3.58;;;15.40;35.90;;;;;;5019868;28;20472;-76
2021/10/11 11:02:21;;;;;;;16.50;3.38;;;15.60;35.40;;;;;;4996958;28;20403;-75
2021/10/11 11:04:58;;;;;;;17.52;4.03;;;15.70;34.70;;;;;;5002020;28;20945;-76
2021/10/11 11:07:31;;;;;;;10.07;2.72;;;15.80;34.80;;;;;;4999813;28;20395;-75
2021/10/11 11:09:58;;;;;;;14.20;3.65;;;15.90;34.10;;;;;;5008315;28;20395;-76
2021/10/11 11:12:35;;;;;;;12.32;3.05;;;15.80;34.00;;;;;;5014903;28;20467;-74
2021/10/11 11:15:10;;;;;;;11.00;2.90;;;15.90;34.80;;;;;;5002919;28;20405;-76
2021/10/11 11:17:37;;;;;;;10.50;2.80;;;15.90;34.40;;;;;;4998230;28;20444;-76
2021/10/11 11:20:11;;;;;;;16.85;3.65;;;16.00;34.20;;;;;;5013504;28;20415;-75
2021/10/11 11:22:37;;;;;;;15.45;4.10;;;16.20;34.00;;;;;;5009315;28;20396;-75
2021/10/11 11:25:06;;;;;;;17.42;4.00;;;16.50;33.90;;;;;;5011991;28;20427;-76
2021/10/11 11:27:37;;;;;;;15.10;3.20;;;16.90;32.20;;;;;;5011212;28;20410;-77
2021/10/11 11:30:10;;;;;;;12.40;3.60;;;16.40;31.40;;;;;;5005528;28;20764;-76
2021/10/11 11:32:46;;;;;;;12.30;2.50;;;16.30;32.10;;;;;;5012578;28;20482;-76
2021/10/11 11:35:36;;;;;;;20.17;3.30;;;16.30;32.30;;;;;;5012005;28;20475;-77
2021/10/11 11:38:08;;;;;;;11.05;2.90;;;16.40;32.40;;;;;;5012306;28;20417;-77
2021/10/11 11:40:39;;;;;;;10.60;3.10;;;16.40;33.00;;;;;;4999906;28;20390;-77
2021/10/11 11:43:06;;;;;;;11.05;3.17;;;16.10;33.20;;;;;;5012418;28;20446;-76
2021/10/11 11:45:49;;;;;;;9.38;3.20;;;15.90;34.20;;;;;;5009460;28;20463;-76
2021/10/11 11:48:16;;;;;;;12.68;2.90;;;15.90;34.10;;;;;;5000143;28;20979;-75
2021/10/11 11:50:44;;;;;;;10.52;3.15;;;16.00;32.50;;;;;;5014899;28;20489;-77
2021/10/11 11:53:11;;;;;;;17.93;3.20;;;16.10;29.90;;;;;;5010848;28;20465;-76
2021/10/11 11:55:39;;;;;;;7.77;2.60;;;16.20;29.40;;;;;;5009296;28;20583;-75
2021/10/11 11:58:12;;;;;;;18.40;3.00;;;16.10;30.20;;;;;;5013023;28;20890;-75
2021/10/11 12:00:39;;;;;;;10.57;2.50;;;16.20;30.00;;;;;;5027989;28;20774;-73
2021/10/11 12:03:05;;;;;;;9.90;2.40;;;16.10;28.60;;;;;;5026252;28;20472;-78
2021/10/11 12:05:31;;;;;;;10.73;2.50;;;16.20;28.00;;;;;;5020236;28;20393;-77
2021/10/11 12:07:57;;;;;;;11.38;2.25;;;16.20;29.10;;;;;;5021306;28;20408;-76
2021/10/11 12:10:24;;;;;;;10.15;2.40;;;16.20;28.50;;;;;;5022583;28;20403;-77
2021/10/11 12:12:58;;;;;;;9.05;2.17;;;16.30;28.50;;;;;;5017287;28;20404;-74
2021/10/11 12:15:24;;;;;;;11.98;2.22;;;16.20;28.40;;;;;;5007741;28;20447;-75
2021/10/11 12:18:00;;;;;;;7.95;1.92;;;16.10;28.60;;;;;;5002377;28;20433;-77
2021/10/11 12:20:25;;;;;;;9.67;2.37;;;16.10;28.40;;;;;;5009261;28;20403;-74
2021/10/11 12:22:54;;;;;;;11.60;2.80;;;16.30;28.00;;;;;;5015823;28;20507;-73
2021/10/11 12:25:19;;;;;;;9.27;1.92;;;16.30;27.10;;;;;;5011320;28;20402;-75
2021/10/11 12:27:45;;;;;;;4.78;1.63;;;16.10;26.70;;;;;;5005603;28;20902;-75
2021/10/11 12:30:11;;;;;;;8.60;2.30;;;16.00;27.30;;;;;;5003664;28;20765;-75
2021/10/11 12:32:37;;;;;;;10.55;2.13;;;15.90;26.70;;;;;;5010204;28;20484;-76